Time,TemperatureF,DewpointF,PressureIn,WindDirection,WindDirectionDegrees,WindSpeedMPH,WindSpeedGustMPH,Humidity,HourlyPrecipIn,Conditions,Clouds,dailyrainin,SoftwareType,DateUTC
2013-09-23 00:00:00,63.2,56.2,29.75,SE,140,4.0,13.6,78,0.00,,CLR,0.00,VWS V14.01,2013-09-23 05:00:00,
2013-09-23 00:10:00,63.0,56.0,29.75,SSE,153,5.0,13.6,78,0.00,,CLR,0.00,VWS V14.01,2013-09-23 05:10:00,
2013-09-23 00:15:00,62.8,56.2,29.75,SSE,155,6.0,14.7,79,0.00,,CLR,0.00,VWS V14.01,2013-09-23 05:15:00,
2013-09-23 00:20:00,62.6,56.0,29.75,SE,146,12.0,15.7,79,0.00,,CLR,0.00,VWS V14.01,2013-09-23 05:20:00,
2013-09-23 00:25:00,62.5,55.9,29.75,SSE,164,5.0,12.6,79,0.00,,CLR,0.00,VWS V14.01,2013-09-23 05:25:00,
2013-09-23 00:30:00,62.3,55.7,29.75,SSE,163,8.0,13.6,79,0.00,,CLR,0.00,VWS V14.01,2013-09-23 05:30:00,
2013-09-23 00:35:00,62.1,55.5,29.76,SSE,150,11.0,14.7,79,0.00,,CLR,0.00,VWS V14.01,2013-09-23 05:35:00,
2013-09-23 00:40:00,62.0,55.4,29.76,SSE,148,10.0,14.7,79,0.00,,CLR,0.00,VWS V14.01,2013-09-23 05:40:00,
2013-09-23 00:50:00,61.6,55.0,29.75,SE,146,3.0,17.8,79,0.00,,CLR,0.00,VWS V14.01,2013-09-23 05:50:00,
2013-09-23 00:55:00,61.5,55.3,29.76,South,169,10.0,12.6,80,0.00,,CLR,0.00,VWS V14.01,2013-09-23 05:55:00,
2013-09-23 01:00:00,61.4,55.2,29.75,ESE,123,8.0,13.6,80,0.00,,CLR,0.00,VWS V14.01,2013-09-23 06:00:00,
2013-09-23 01:05:00,61.3,55.1,29.76,South,182,6.0,15.7,80,0.00,,CLR,0.00,VWS V14.01,2013-09-23 06:05:00,
2013-09-23 01:10:00,61.3,55.1,29.76,South,179,5.0,12.6,80,0.00,,CLR,0.00,VWS V14.01,2013-09-23 06:10:00,
2013-09-23 01:20:00,61.1,54.9,29.76,SSW,198,5.0,16.8,80,0.00,,CLR,0.00,VWS V14.01,2013-09-23 06:20:00,
2013-09-23 01:25:00,61.0,54.8,29.76,SSE,162,11.0,15.7,80,0.00,,CLR,0.00,VWS V14.01,2013-09-23 06:25:00,
2013-09-23 01:30:00,61.0,54.8,29.76,SE,142,4.0,13.6,80,0.00,,CLR,0.00,VWS V14.01,2013-09-23 06:30:00,
2013-09-23 01:35:00,60.9,54.7,29.76,SE,138,5.0,15.7,80,0.00,,CLR,0.00,VWS V14.01,2013-09-23 06:35:00,
2013-09-23 01:45:00,60.7,54.5,29.77,SE,144,10.0,14.7,80,0.00,,CLR,0.00,VWS V14.01,2013-09-23 06:45:00,
2013-09-23 01:50:00,60.6,54.4,29.77,SSE,152,4.0,15.7,80,0.00,,CLR,0.00,VWS V14.01,2013-09-23 06:50:00,
2013-09-23 02:00:00,60.3,54.1,29.77,ESE,111,8.0,12.6,80,0.00,,CLR,0.00,VWS V14.01,2013-09-23 07:00:00,
2013-09-23 02:05:00,60.1,53.9,29.77,SE,136,5.0,10.5,80,0.00,,CLR,0.00,VWS V14.01,2013-09-23 07:05:00,
2013-09-23 02:15:00,60.0,53.8,29.77,SSE,149,5.0,14.7,80,0.00,,CLR,0.00,VWS V14.01,2013-09-23 07:15:00,
2013-09-23 02:20:00,60.0,53.8,29.77,SSE,154,7.0,11.5,80,0.00,,CLR,0.00,VWS V14.01,2013-09-23 07:20:00,
2013-09-23 02:30:00,59.7,53.5,29.77,SSE,154,7.0,11.5,80,0.00,,CLR,0.00,VWS V14.01,2013-09-23 07:30:00,
2013-09-23 02:35:00,59.5,53.3,29.77,SE,124,7.0,11.5,80,0.00,,CLR,0.00,VWS V14.01,2013-09-23 07:35:00,
2013-09-23 02:40:00,59.2,53.0,29.77,ESE,121,2.0,11.5,80,0.00,,CLR,0.00,VWS V14.01,2013-09-23 07:40:00,
2013-09-23 02:50:00,58.9,52.8,29.76,SE,140,5.0,12.6,80,0.00,,CLR,0.00,VWS V14.01,2013-09-23 07:50:00,
2013-09-23 02:55:00,58.9,52.8,29.76,ESE,111,6.0,15.7,80,0.00,,CLR,0.00,VWS V14.01,2013-09-23 07:55:00,
2013-09-23 03:00:00,58.7,52.6,29.76,SE,124,5.0,11.5,80,0.00,,CLR,0.00,VWS V14.01,2013-09-23 08:00:00,
2013-09-23 03:05:00,58.6,52.8,29.76,SE,145,5.0,11.5,81,0.00,,CLR,0.00,VWS V14.01,2013-09-23 08:05:00,
2013-09-23 03:15:00,58.6,52.8,29.76,SE,139,2.0,13.6,81,0.00,,CLR,0.00,VWS V14.01,2013-09-23 08:15:00,
2013-09-23 03:20:00,58.5,52.7,29.76,SSE,148,6.0,16.8,81,0.00,,CLR,0.00,VWS V14.01,2013-09-23 08:20:00,
2013-09-23 03:25:00,58.5,52.7,29.76,SSE,165,5.0,12.6,81,0.00,,CLR,0.00,VWS V14.01,2013-09-23 08:25:00,
2013-09-23 03:30:00,58.4,52.6,29.76,SE,134,5.0,12.6,81,0.00,,CLR,0.00,VWS V14.01,2013-09-23 08:30:00,
2013-09-23 03:40:00,58.3,52.5,29.76,SE,142,12.0,16.8,81,0.00,,CLR,0.00,VWS V14.01,2013-09-23 08:40:00,
2013-09-23 03:45:00,58.3,52.5,29.76,SE,133,8.0,14.7,81,0.00,,CLR,0.00,VWS V14.01,2013-09-23 08:45:00,
2013-09-23 03:55:00,58.2,52.4,29.76,SE,124,8.0,15.7,81,0.00,,CLR,0.00,VWS V14.01,2013-09-23 08:55:00,
2013-09-23 04:00:00,58.2,52.4,29.75,SSE,154,8.0,14.7,81,0.00,,CLR,0.00,VWS V14.01,2013-09-23 09:00:00,
2013-09-23 04:05:00,58.1,52.3,29.76,SE,125,10.0,14.7,81,0.00,,CLR,0.00,VWS V14.01,2013-09-23 09:05:00,
2013-09-23 04:10:00,58.0,52.2,29.76,SE,134,12.0,13.6,81,0.00,,CLR,0.00,VWS V14.01,2013-09-23 09:10:00,
2013-09-23 04:15:00,57.9,52.1,29.76,SE,133,5.0,15.7,81,0.00,,CLR,0.00,VWS V14.01,2013-09-23 09:15:00,
2013-09-23 04:20:00,57.8,52.0,29.76,ESE,121,8.0,12.6,81,0.00,,CLR,0.00,VWS V14.01,2013-09-23 09:20:00,
2013-09-23 04:30:00,57.5,51.7,29.76,ESE,108,6.0,14.7,81,0.00,,CLR,0.00,VWS V14.01,2013-09-23 09:30:00,
2013-09-23 04:35:00,57.4,51.6,29.76,SSE,149,9.0,14.7,81,0.00,,CLR,0.00,VWS V14.01,2013-09-23 09:35:00,
2013-09-23 04:40:00,57.2,51.4,29.76,East,101,3.0,10.5,81,0.00,,CLR,0.00,VWS V14.01,2013-09-23 09:40:00,
2013-09-23 04:45:00,57.1,51.3,29.76,ESE,108,3.0,14.7,81,0.00,,CLR,0.00,VWS V14.01,2013-09-23 09:45:00,
2013-09-23 04:50:00,57.1,51.3,29.76,SE,143,8.0,12.6,81,0.00,,CLR,0.00,VWS V14.01,2013-09-23 09:50:00,
2013-09-23 04:55:00,57.1,51.3,29.76,SE,143,8.0,8.4,81,0.00,,CLR,0.00,VWS V14.01,2013-09-23 09:55:00,
2013-09-23 05:00:00,57.0,51.2,29.76,SE,124,8.0,14.7,81,0.00,,CLR,0.00,VWS V14.01,2013-09-23 10:00:00,
2013-09-23 05:10:00,56.9,51.1,29.76,SE,139,9.0,14.7,81,0.00,,CLR,0.00,VWS V14.01,2013-09-23 10:10:00,
2013-09-23 05:15:00,56.9,51.1,29.76,SSE,155,6.0,12.6,81,0.00,,CLR,0.00,VWS V14.01,2013-09-23 10:15:00,
2013-09-23 05:20:00,56.7,50.9,29.76,SE,128,9.0,12.6,81,0.00,,CLR,0.00,VWS V14.01,2013-09-23 10:20:00,
2013-09-23 05:30:00,56.4,50.7,29.77,SE,140,9.0,12.6,81,0.00,,CLR,0.00,VWS V14.01,2013-09-23 10:30:00,
2013-09-23 05:40:00,56.2,50.5,29.77,SE,138,9.0,12.6,81,0.00,,CLR,0.00,VWS V14.01,2013-09-23 10:40:00,
2013-09-23 05:45:00,56.0,50.3,29.77,SE,136,4.0,10.5,81,0.00,,CLR,0.00,VWS V14.01,2013-09-23 10:45:00,
2013-09-23 05:50:00,55.7,50.0,29.77,South,175,9.0,12.6,81,0.00,,CLR,0.00,VWS V14.01,2013-09-23 10:50:00,
2013-09-23 06:00:00,55.3,49.6,29.77,ESE,116,3.0,9.4,81,0.00,,CLR,0.00,VWS V14.01,2013-09-23 11:00:00,
2013-09-23 06:05:00,55.1,49.4,29.77,SSE,155,4.0,11.5,81,0.00,,CLR,0.00,VWS V14.01,2013-09-23 11:05:00,
2013-09-23 06:10:00,54.9,49.2,29.78,SSE,151,2.0,9.4,81,0.00,,CLR,0.00,VWS V14.01,2013-09-23 11:10:00,
2013-09-23 06:20:00,54.6,48.9,29.77,SE,134,4.0,9.4,81,0.00,,CLR,0.00,VWS V14.01,2013-09-23 11:20:00,
2013-09-23 06:30:00,54.4,48.7,29.77,ESE,118,4.0,11.5,81,0.00,,CLR,0.00,VWS V14.01,2013-09-23 11:30:00,
2013-09-23 06:40:00,54.5,48.8,29.78,SE,133,9.0,12.6,81,0.00,,CLR,0.00,VWS V14.01,2013-09-23 11:40:00,
2013-09-23 06:45:00,54.5,48.8,29.78,SE,131,10.0,12.6,81,0.00,,CLR,0.00,VWS V14.01,2013-09-23 11:45:00,
2013-09-23 06:50:00,54.6,48.9,29.78,SSE,147,6.0,13.6,81,0.00,,CLR,0.00,VWS V14.01,2013-09-23 11:50:00,
2013-09-23 06:55:00,54.7,49.0,29.78,SE,126,9.0,14.7,81,0.00,,CLR,0.00,VWS V14.01,2013-09-23 11:55:00,
2013-09-23 07:00:00,54.8,49.1,29.78,ESE,110,9.0,11.5,81,0.00,,CLR,0.00,VWS V14.01,2013-09-23 12:00:00,
2013-09-23 07:05:00,54.7,49.0,29.78,ESE,111,4.0,12.6,81,0.00,,CLR,0.00,VWS V14.01,2013-09-23 12:05:00,
2013-09-23 07:10:00,54.6,48.9,29.79,SE,126,9.0,13.6,81,0.00,,CLR,0.00,VWS V14.01,2013-09-23 12:10:00,
2013-09-23 07:15:00,54.6,48.9,29.79,ESE,123,7.0,15.7,81,0.00,,CLR,0.00,VWS V14.01,2013-09-23 12:15:00,
2013-09-23 07:20:00,54.6,48.9,29.79,SE,134,4.0,12.6,81,0.00,,CLR,0.00,VWS V14.01,2013-09-23 12:20:00,
2013-09-23 07:30:00,54.8,49.1,29.79,ESE,102,8.0,11.5,81,0.00,,CLR,0.00,VWS V14.01,2013-09-23 12:30:00,
2013-09-23 07:35:00,55.0,49.3,29.79,East,95,8.0,14.7,81,0.00,,CLR,0.00,VWS V14.01,2013-09-23 12:35:00,
2013-09-23 07:40:00,55.3,49.6,29.79,ESE,119,11.0,13.6,81,0.00,,CLR,0.00,VWS V14.01,2013-09-23 12:40:00,
2013-09-23 07:45:00,55.6,49.9,29.79,SE,142,10.0,13.6,81,0.00,,CLR,0.00,VWS V14.01,2013-09-23 12:45:00,
2013-09-23 07:50:00,55.9,50.2,29.80,ESE,109,11.0,13.6,81,0.00,,CLR,0.00,VWS V14.01,2013-09-23 12:50:00,
2013-09-23 07:55:00,56.1,50.4,29.80,SE,144,11.0,15.7,81,0.00,,CLR,0.00,VWS V14.01,2013-09-23 12:55:00,
2013-09-23 08:00:00,56.3,50.5,29.79,ESE,115,6.0,12.6,81,0.00,,CLR,0.00,VWS V14.01,2013-09-23 13:00:00,
2013-09-23 08:10:00,56.7,50.9,29.79,SE,143,9.0,13.6,81,0.00,,CLR,0.00,VWS V14.01,2013-09-23 13:10:00,
2013-09-23 08:15:00,57.0,51.2,29.79,South,175,7.0,15.7,81,0.00,,CLR,0.00,VWS V14.01,2013-09-23 13:15:00,
2013-09-23 08:20:00,57.2,51.4,29.79,SE,132,11.0,15.7,81,0.00,,CLR,0.00,VWS V14.01,2013-09-23 13:20:00,
2013-09-23 08:25:00,57.4,51.3,29.79,SSE,158,7.0,15.7,80,0.00,,CLR,0.00,VWS V14.01,2013-09-23 13:25:00,
2013-09-23 08:35:00,57.7,51.6,29.79,ESE,122,5.0,14.7,80,0.00,,CLR,0.00,VWS V14.01,2013-09-23 13:35:00,
2013-09-23 08:40:00,58.0,51.9,29.80,East,90,7.0,17.8,80,0.00,,CLR,0.00,VWS V14.01,2013-09-23 13:40:00,
2013-09-23 08:45:00,58.3,52.2,29.80,SE,145,4.0,12.6,80,0.00,,CLR,0.00,VWS V14.01,2013-09-23 13:45:00,
2013-09-23 08:50:00,58.6,52.1,29.80,SSE,154,11.0,17.8,79,0.00,,CLR,0.00,VWS V14.01,2013-09-23 13:50:00,
2013-09-23 09:00:00,59.3,52.5,29.80,ESE,120,8.0,17.8,78,0.00,,CLR,0.00,VWS V14.01,2013-09-23 14:00:00,
2013-09-23 09:10:00,60.1,52.5,29.80,SE,138,8.0,17.8,76,0.00,,CLR,0.00,VWS V14.01,2013-09-23 14:10:00,
2013-09-23 09:20:00,60.4,52.8,29.80,SSE,155,7.0,16.8,76,0.00,,CLR,0.00,VWS V14.01,2013-09-23 14:20:00,
2013-09-23 09:25:00,60.4,52.8,29.80,South,172,13.0,15.7,76,0.00,,CLR,0.00,VWS V14.01,2013-09-23 14:25:00,
2013-09-23 09:30:00,60.7,52.7,29.80,SE,126,13.0,21.0,75,0.00,,CLR,0.00,VWS V14.01,2013-09-23 14:30:00,
2013-09-23 09:40:00,61.3,53.3,29.80,SSE,148,5.0,19.9,75,0.00,,CLR,0.00,VWS V14.01,2013-09-23 14:40:00,
2013-09-23 09:45:00,61.7,53.3,29.80,SSE,155,10.0,22.0,74,0.00,,CLR,0.00,VWS V14.01,2013-09-23 14:45:00,
2013-09-23 09:50:00,62.1,53.3,29.80,SSE,159,7.0,18.9,73,0.00,,CLR,0.00,VWS V14.01,2013-09-23 14:50:00,
2013-09-23 09:55:00,62.5,53.7,29.79,SE,138,9.0,19.9,73,0.00,,CLR,0.00,VWS V14.01,2013-09-23 14:55:00,
2013-09-23 10:05:00,63.3,53.8,29.79,SE,140,15.0,24.1,71,0.00,,CLR,0.00,VWS V14.01,2013-09-23 15:05:00,
2013-09-23 10:15:00,63.6,54.0,29.79,SSE,161,7.0,19.9,71,0.00,,CLR,0.00,VWS V14.01,2013-09-23 15:15:00,
2013-09-23 10:20:00,63.9,54.3,29.79,SE,134,13.0,17.8,71,0.00,,CLR,0.00,VWS V14.01,2013-09-23 15:20:00,
2013-09-23 10:25:00,64.0,53.6,29.79,SE,142,11.0,21.0,69,0.00,,CLR,0.00,VWS V14.01,2013-09-23 15:25:00,
2013-09-23 10:35:00,64.1,53.7,29.78,SE,138,9.0,19.9,69,0.00,,CLR,0.00,VWS V14.01,2013-09-23 15:35:00,
2013-09-23 10:40:00,64.5,54.5,29.78,SSE,156,6.0,17.8,70,0.00,,CLR,0.00,VWS V14.01,2013-09-23 15:40:00,
2013-09-23 10:50:00,64.6,54.2,29.78,SSE,160,13.0,27.3,69,0.00,,CLR,0.00,VWS V14.01,2013-09-23 15:50:00,
2013-09-23 11:00:00,65.2,54.4,29.78,SSE,155,9.0,21.0,68,0.00,,CLR,0.00,VWS V14.01,2013-09-23 16:00:00,
2013-09-23 11:05:00,65.4,54.6,29.78,SSE,157,9.0,27.3,68,0.00,,CLR,0.00,VWS V14.01,2013-09-23 16:05:00,
2013-09-23 11:10:00,66.1,54.8,29.78,South,171,14.0,25.2,67,0.00,,CLR,0.00,VWS V14.01,2013-09-23 16:10:00,
2013-09-23 11:15:00,66.8,55.1,29.78,SE,126,13.0,21.0,66,0.00,,CLR,0.00,VWS V14.01,2013-09-23 16:15:00,
2013-09-23 11:25:00,67.6,55.0,29.77,SE,126,19.0,23.1,64,0.00,,CLR,0.00,VWS V14.01,2013-09-23 16:25:00,
2013-09-23 11:30:00,68.2,55.6,29.77,ESE,116,10.0,23.1,64,0.00,,CLR,0.00,VWS V14.01,2013-09-23 16:30:00,
2013-09-23 11:35:00,68.8,54.8,29.78,SSW,213,10.0,24.1,61,0.00,,CLR,0.00,VWS V14.01,2013-09-23 16:35:00,
2013-09-23 11:40:00,69.2,55.2,29.77,South,186,12.0,21.0,61,0.00,,CLR,0.00,VWS V14.01,2013-09-23 16:40:00,
2013-09-23 11:50:00,70.1,55.6,29.77,SSE,159,7.0,22.0,60,0.00,,CLR,0.00,VWS V14.01,2013-09-23 16:50:00,
2013-09-23 11:55:00,70.5,55.0,29.77,SSE,148,10.0,16.8,58,0.00,,CLR,0.00,VWS V14.01,2013-09-23 16:55:00,
2013-09-23 12:05:00,70.6,54.6,29.77,SSE,163,11.0,19.9,57,0.00,,CLR,0.00,VWS V14.01,2013-09-23 17:05:00,
2013-09-23 12:15:00,71.1,55.1,29.77,SSE,157,14.0,27.3,57,0.00,,CLR,0.00,VWS V14.01,2013-09-23 17:15:00,
2013-09-23 12:25:00,71.7,54.7,29.76,South,173,16.0,24.1,55,0.00,,CLR,0.00,VWS V14.01,2013-09-23 17:25:00,
2013-09-23 12:35:00,72.3,54.7,29.76,SSE,147,10.0,23.1,54,0.00,,CLR,0.00,VWS V14.01,2013-09-23 17:35:00,
2013-09-23 12:45:00,72.2,54.7,29.75,SSE,148,13.0,24.1,54,0.00,,CLR,0.00,VWS V14.01,2013-09-23 17:45:00,
2013-09-23 12:55:00,72.4,55.3,29.75,South,183,13.0,23.1,55,0.00,,CLR,0.00,VWS V14.01,2013-09-23 17:55:00,
2013-09-23 13:00:00,72.6,54.5,29.75,SE,136,8.0,18.9,53,0.00,,CLR,0.00,VWS V14.01,2013-09-23 18:00:00,
2013-09-23 13:15:00,73.3,54.6,29.75,SSE,161,12.0,22.0,52,0.00,,CLR,0.00,VWS V14.01,2013-09-23 18:15:00,
2013-09-23 13:20:00,73.3,54.6,29.75,South,179,7.0,21.0,52,0.00,,CLR,0.00,VWS V14.01,2013-09-23 18:20:00,
2013-09-23 13:25:00,73.5,55.9,29.75,South,185,10.0,19.9,54,0.00,,CLR,0.00,VWS V14.01,2013-09-23 18:25:00,
2013-09-23 13:35:00,74.1,53.7,29.74,South,186,8.0,23.1,49,0.00,,CLR,0.00,VWS V14.01,2013-09-23 18:35:00,
2013-09-23 13:40:00,74.5,54.1,29.74,South,186,13.0,23.1,49,0.00,,CLR,0.00,VWS V14.01,2013-09-23 18:40:00,
2013-09-23 13:50:00,74.8,53.2,29.74,SSE,167,15.0,27.3,47,0.00,,CLR,0.00,VWS V14.01,2013-09-23 18:50:00,
2013-09-23 13:55:00,74.9,55.0,29.74,SSW,192,4.0,18.9,50,0.00,,CLR,0.00,VWS V14.01,2013-09-23 18:55:00,
2013-09-23 14:00:00,75.1,54.7,29.73,SE,128,11.0,18.9,49,0.00,,CLR,0.00,VWS V14.01,2013-09-23 19:00:00,
2013-09-23 14:05:00,75.4,54.4,29.73,SSW,207,9.0,21.0,48,0.00,,CLR,0.00,VWS V14.01,2013-09-23 19:05:00,
2013-09-23 14:10:00,75.6,54.5,29.73,SSE,155,7.0,17.8,48,0.00,,CLR,0.00,VWS V14.01,2013-09-23 19:10:00,
2013-09-23 14:20:00,75.3,53.7,29.73,South,174,17.0,21.0,47,0.00,,CLR,0.00,VWS V14.01,2013-09-23 19:20:00,
2013-09-23 14:25:00,75.1,54.1,29.73,South,180,4.0,24.1,48,0.00,,CLR,0.00,VWS V14.01,2013-09-23 19:25:00,
2013-09-23 14:30:00,75.5,55.0,29.73,SE,140,10.0,17.8,49,0.00,,CLR,0.00,VWS V14.01,2013-09-23 19:30:00,
2013-09-23 14:40:00,75.8,54.7,29.73,East,101,10.0,21.0,48,0.00,,CLR,0.00,VWS V14.01,2013-09-23 19:40:00,
2013-09-23 14:45:00,75.8,54.7,29.73,SSE,163,7.0,18.9,48,0.00,,CLR,0.00,VWS V14.01,2013-09-23 19:45:00,
2013-09-23 14:50:00,75.9,54.2,29.73,South,169,10.0,19.9,47,0.00,,CLR,0.00,VWS V14.01,2013-09-23 19:50:00,
2013-09-23 14:55:00,76.0,54.9,29.73,SE,128,14.0,22.0,48,0.00,,CLR,0.00,VWS V14.01,2013-09-23 19:55:00,
2013-09-23 15:00:00,76.0,53.8,29.72,SSW,194,11.0,19.9,46,0.00,,CLR,0.00,VWS V14.01,2013-09-23 20:00:00,
2013-09-23 15:05:00,75.9,54.2,29.72,SE,132,13.0,17.8,47,0.00,,CLR,0.00,VWS V14.01,2013-09-23 20:05:00,
2013-09-23 15:15:00,75.5,53.9,29.73,SE,125,12.0,19.9,47,0.00,,CLR,0.00,VWS V14.01,2013-09-23 20:15:00,
2013-09-23 15:25:00,75.4,53.8,29.73,SE,141,8.0,22.0,47,0.00,,CLR,0.00,VWS V14.01,2013-09-23 20:25:00,
2013-09-23 15:30:00,75.9,54.2,29.72,SE,137,13.0,17.8,47,0.00,,CLR,0.00,VWS V14.01,2013-09-23 20:30:00,
2013-09-23 15:35:00,75.9,54.2,29.72,SSE,147,9.0,21.0,47,0.00,,CLR,0.00,VWS V14.01,2013-09-23 20:35:00,
2013-09-23 15:45:00,75.4,54.4,29.72,ESE,123,10.0,19.9,48,0.00,,CLR,0.00,VWS V14.01,2013-09-23 20:45:00,
2013-09-23 15:55:00,75.8,54.2,29.72,SSE,164,9.0,22.0,47,0.00,,CLR,0.00,VWS V14.01,2013-09-23 20:55:00,
2013-09-23 16:00:00,76.0,53.8,29.73,SSE,151,12.0,16.8,46,0.00,,CLR,0.00,VWS V14.01,2013-09-23 21:00:00,
2013-09-23 16:05:00,76.1,55.0,29.72,SSE,157,3.0,17.8,48,0.00,,CLR,0.00,VWS V14.01,2013-09-23 21:05:00,
2013-09-23 16:10:00,76.5,54.2,29.72,SSE,163,7.0,13.6,46,0.00,,CLR,0.00,VWS V14.01,2013-09-23 21:10:00,
2013-09-23 16:20:00,76.0,53.8,29.72,SE,144,11.0,27.3,46,0.00,,CLR,0.00,VWS V14.01,2013-09-23 21:20:00,
2013-09-23 16:25:00,76.0,53.8,29.72,SE,131,11.0,18.9,46,0.00,,CLR,0.00,VWS V14.01,2013-09-23 21:25:00,
2013-09-23 16:30:00,76.2,53.3,29.73,ESE,123,8.0,19.9,45,0.00,,CLR,0.00,VWS V14.01,2013-09-23 21:30:00,
2013-09-23 16:35:00,76.2,53.3,29.72,ESE,108,16.0,22.0,45,0.00,,CLR,0.00,VWS V14.01,2013-09-23 21:35:00,
2013-09-23 16:40:00,76.3,53.4,29.73,South,181,9.0,16.8,45,0.00,,CLR,0.00,VWS V14.01,2013-09-23 21:40:00,
2013-09-23 16:45:00,76.2,53.9,29.73,SE,126,13.0,17.8,46,0.00,,CLR,0.00,VWS V14.01,2013-09-23 21:45:00,
2013-09-23 16:50:00,76.1,53.8,29.73,SE,141,12.0,21.0,46,0.00,,CLR,0.00,VWS V14.01,2013-09-23 21:50:00,
2013-09-23 16:55:00,76.1,53.8,29.73,SE,137,8.0,18.9,46,0.00,,CLR,0.00,VWS V14.01,2013-09-23 21:55:00,
2013-09-23 17:05:00,75.9,53.7,29.73,South,169,9.0,19.9,46,0.00,,CLR,0.00,VWS V14.01,2013-09-23 22:05:00,
2013-09-23 17:10:00,75.8,53.6,29.73,SSE,161,8.0,19.9,46,0.00,,CLR,0.00,VWS V14.01,2013-09-23 22:10:00,
2013-09-23 17:20:00,75.7,53.5,29.73,SE,145,5.0,21.0,46,0.00,,CLR,0.00,VWS V14.01,2013-09-23 22:20:00,
2013-09-23 17:25:00,75.7,54.1,29.74,SE,131,11.0,15.7,47,0.00,,CLR,0.00,VWS V14.01,2013-09-23 22:25:00,
2013-09-23 17:35:00,75.5,53.9,29.74,SSE,162,20.0,21.0,47,0.00,,CLR,0.00,VWS V14.01,2013-09-23 22:35:00,
2013-09-23 17:40:00,75.4,53.8,29.74,SSE,148,9.0,21.0,47,0.00,,CLR,0.00,VWS V14.01,2013-09-23 22:40:00,
2013-09-23 17:45:00,75.3,54.3,29.74,SE,132,9.0,12.6,48,0.00,,CLR,0.00,VWS V14.01,2013-09-23 22:45:00,
2013-09-23 17:50:00,75.2,54.8,29.74,SE,128,8.0,13.6,49,0.00,,CLR,0.00,VWS V14.01,2013-09-23 22:50:00,
2013-09-23 18:00:00,74.8,53.8,29.74,SE,140,7.0,11.5,48,0.00,,CLR,0.00,VWS V14.01,2013-09-23 23:00:00,
2013-09-23 18:05:00,74.6,53.1,29.74,SE,135,5.0,16.8,47,0.00,,CLR,0.00,VWS V14.01,2013-09-23 23:05:00,
2013-09-23 18:15:00,74.3,52.8,29.74,SE,126,4.0,14.7,47,0.00,,CLR,0.00,VWS V14.01,2013-09-23 23:15:00,
2013-09-23 18:20:00,74.2,53.3,29.74,SE,136,7.0,15.7,48,0.00,,CLR,0.00,VWS V14.01,2013-09-23 23:20:00,
2013-09-23 18:25:00,73.9,53.6,29.74,SE,141,8.0,11.5,49,0.00,,CLR,0.00,VWS V14.01,2013-09-23 23:25:00,
2013-09-23 18:35:00,73.2,53.5,29.74,SE,133,3.0,11.5,50,0.00,,CLR,0.00,VWS V14.01,2013-09-23 23:35:00,
2013-09-23 18:40:00,72.7,53.5,29.74,SE,146,2.0,8.4,51,0.00,,CLR,0.00,VWS V14.01,2013-09-23 23:40:00,
2013-09-23 18:45:00,72.2,53.1,29.74,ESE,115,7.0,10.5,51,0.00,,CLR,0.00,VWS V14.01,2013-09-23 23:45:00,
2013-09-23 18:55:00,71.3,52.8,29.74,ESE,119,3.0,9.4,52,0.00,,CLR,0.00,VWS V14.01,2013-09-23 23:55:00,
2013-09-23 19:00:00,70.8,52.8,29.74,SE,130,5.0,11.5,53,0.00,,CLR,0.00,VWS V14.01,2013-09-24 00:00:00,
2013-09-23 19:10:00,69.9,52.5,29.75,SE,130,5.0,11.5,54,0.00,,CLR,0.00,VWS V14.01,2013-09-24 00:10:00,
2013-09-23 19:20:00,69.2,52.4,29.75,SSE,153,3.0,11.5,55,0.00,,CLR,0.00,VWS V14.01,2013-09-24 00:20:00,
2013-09-23 19:25:00,68.7,51.9,29.75,ESE,121,2.0,11.5,55,0.00,,CLR,0.00,VWS V14.01,2013-09-24 00:25:00,
2013-09-23 19:30:00,68.4,52.1,29.75,SE,134,5.0,9.4,56,0.00,,CLR,0.00,VWS V14.01,2013-09-24 00:30:00,
2013-09-23 19:35:00,67.9,52.1,29.75,ESE,119,4.0,9.4,57,0.00,,CLR,0.00,VWS V14.01,2013-09-24 00:35:00,
2013-09-23 19:45:00,66.7,52.4,29.76,ESE,115,6.0,7.3,60,0.00,,CLR,0.00,VWS V14.01,2013-09-24 00:45:00,
2013-09-23 19:50:00,66.1,52.3,29.76,ESE,118,3.0,8.4,61,0.00,,CLR,0.00,VWS V14.01,2013-09-24 00:50:00,
2013-09-23 19:55:00,65.9,52.1,29.76,ESE,121,3.0,10.5,61,0.00,,CLR,0.00,VWS V14.01,2013-09-24 00:55:00,
2013-09-23 20:00:00,65.7,52.8,29.76,SE,138,5.0,8.4,63,0.00,,CLR,0.00,VWS V14.01,2013-09-24 01:00:00,
2013-09-23 20:05:00,65.4,52.9,29.76,ESE,107,4.0,9.4,64,0.00,,CLR,0.00,VWS V14.01,2013-09-24 01:05:00,
2013-09-23 20:15:00,65.0,53.8,29.77,ESE,112,9.0,9.4,67,0.00,,CLR,0.00,VWS V14.01,2013-09-24 01:15:00,
2013-09-23 20:20:00,64.8,53.6,29.77,SE,128,8.0,11.5,67,0.00,,CLR,0.00,VWS V14.01,2013-09-24 01:20:00,
2013-09-23 20:25:00,64.6,53.8,29.77,SE,127,5.0,10.5,68,0.00,,CLR,0.00,VWS V14.01,2013-09-24 01:25:00,
2013-09-23 20:35:00,64.2,53.8,29.77,ESE,103,1.0,10.5,69,0.00,,CLR,0.00,VWS V14.01,2013-09-24 01:35:00,
2013-09-23 20:45:00,64.0,53.6,29.77,SE,146,3.0,12.6,69,0.00,,CLR,0.00,VWS V14.01,2013-09-24 01:45:00,
2013-09-23 20:50:00,64.0,53.6,29.78,SE,142,9.0,10.5,69,0.00,,CLR,0.00,VWS V14.01,2013-09-24 01:50:00,
2013-09-23 20:55:00,64.0,53.6,29.78,SE,140,7.0,12.6,69,0.00,,CLR,0.00,VWS V14.01,2013-09-24 01:55:00,
2013-09-23 21:00:00,64.2,53.4,29.78,SE,140,10.0,14.7,68,0.00,,CLR,0.00,VWS V14.01,2013-09-24 02:00:00,
2013-09-23 21:05:00,64.3,53.5,29.78,SE,137,8.0,12.6,68,0.00,,CLR,0.00,VWS V14.01,2013-09-24 02:05:00,
2013-09-23 21:15:00,63.9,53.5,29.78,SE,133,9.0,13.6,69,0.00,,CLR,0.00,VWS V14.01,2013-09-24 02:15:00,
2013-09-23 21:20:00,63.8,53.5,29.78,ESE,119,4.0,12.6,69,0.00,,CLR,0.00,VWS V14.01,2013-09-24 02:20:00,
2013-09-23 21:30:00,63.2,53.3,29.78,SE,132,7.0,12.6,70,0.00,,CLR,0.00,VWS V14.01,2013-09-24 02:30:00,
2013-09-23 21:35:00,63.0,53.5,29.78,ESE,120,7.0,14.7,71,0.00,,CLR,0.00,VWS V14.01,2013-09-24 02:35:00,
2013-09-23 21:40:00,62.8,53.7,29.79,ESE,109,8.0,11.5,72,0.00,,CLR,0.00,VWS V14.01,2013-09-24 02:40:00,
2013-09-23 21:45:00,62.6,53.5,29.79,ESE,115,7.0,11.5,72,0.00,,CLR,0.00,VWS V14.01,2013-09-24 02:45:00,
2013-09-23 21:50:00,62.6,53.5,29.79,ESE,115,9.0,12.6,72,0.00,,CLR,0.00,VWS V14.01,2013-09-24 02:50:00,
2013-09-23 22:00:00,62.5,53.4,29.79,SE,128,4.0,12.6,72,0.00,,CLR,0.00,VWS V14.01,2013-09-24 03:00:00,
2013-09-23 22:05:00,62.5,53.4,29.79,East,86,5.0,11.5,72,0.00,,CLR,0.00,VWS V14.01,2013-09-24 03:05:00,
2013-09-23 22:10:00,62.5,53.4,29.79,SE,138,7.0,13.6,72,0.00,,CLR,0.00,VWS V14.01,2013-09-24 03:10:00,
2013-09-23 22:15:00,62.4,53.3,29.79,ESE,117,9.0,12.6,72,0.00,,CLR,0.00,VWS V14.01,2013-09-24 03:15:00,
2013-09-23 22:20:00,62.3,53.2,29.79,ESE,110,8.0,12.6,72,0.00,,CLR,0.00,VWS V14.01,2013-09-24 03:20:00,
2013-09-23 22:25:00,62.3,53.2,29.79,SE,139,11.0,15.7,72,0.00,,CLR,0.00,VWS V14.01,2013-09-24 03:25:00,
2013-09-23 22:30:00,62.3,53.2,29.79,SE,125,8.0,11.5,72,0.00,,CLR,0.00,VWS V14.01,2013-09-24 03:30:00,
2013-09-23 22:35:00,62.3,53.2,29.80,ESE,115,7.0,16.8,72,0.00,,CLR,0.00,VWS V14.01,2013-09-24 03:35:00,
2013-09-23 22:40:00,62.3,53.2,29.79,SE,146,8.0,16.8,72,0.00,,CLR,0.00,VWS V14.01,2013-09-24 03:40:00,
2013-09-23 22:45:00,62.2,53.1,29.80,SE,127,7.0,12.6,72,0.00,,CLR,0.00,VWS V14.01,2013-09-24 03:45:00,
2013-09-23 22:50:00,61.9,52.8,29.80,ESE,118,7.0,11.5,72,0.00,,CLR,0.00,VWS V14.01,2013-09-24 03:50:00,
2013-09-23 22:55:00,61.6,52.9,29.80,ESE,103,6.0,12.6,73,0.00,,CLR,0.00,VWS V14.01,2013-09-24 03:55:00,
2013-09-23 23:00:00,61.3,53.0,29.80,SE,128,3.0,12.6,74,0.00,,CLR,0.00,VWS V14.01,2013-09-24 04:00:00,
2013-09-23 23:05:00,61.1,52.8,29.80,SE,139,8.0,14.7,74,0.00,,CLR,0.00,VWS V14.01,2013-09-24 04:05:00,
2013-09-23 23:10:00,60.9,52.9,29.81,SE,140,9.0,13.6,75,0.00,,CLR,0.00,VWS V14.01,2013-09-24 04:10:00,
2013-09-23 23:15:00,60.7,52.7,29.81,SE,125,2.0,9.4,75,0.00,,CLR,0.00,VWS V14.01,2013-09-24 04:15:00,
2013-09-23 23:20:00,60.4,52.5,29.81,SE,140,4.0,10.5,75,0.00,,CLR,0.00,VWS V14.01,2013-09-24 04:20:00,
2013-09-23 23:30:00,59.8,52.2,29.82,SE,126,4.0,9.4,76,0.00,,CLR,0.00,VWS V14.01,2013-09-24 04:30:00,
2013-09-23 23:35:00,59.4,52.2,29.82,SE,134,5.0,9.4,77,0.00,,CLR,0.00,VWS V14.01,2013-09-24 04:35:00,
2013-09-23 23:45:00,58.7,51.9,29.82,SE,130,4.0,7.3,78,0.00,,CLR,0.00,VWS V14.01,2013-09-24 04:45:00,
2013-09-23 23:50:00,58.4,51.9,29.82,SE,144,1.0,8.4,79,0.00,,CLR,0.00,VWS V14.01,2013-09-24 04:50:00,
2013-09-23 23:55:00,58.2,51.7,29.82,SE,129,5.0,9.4,79,0.00,,CLR,0.00,VWS V14.01,2013-09-24 04:55:00,